createdAt,value
2022-08-12T00:02:21.371Z,66.22
2022-08-12T00:05:09.107Z,63.25
2022-08-12T00:07:59.801Z,61.75
2022-08-12T00:10:47.423Z,58.35
2022-08-12T00:13:34.105Z,57.55
2022-08-12T00:16:21.251Z,64.98
2022-08-12T00:19:07.939Z,65.03
2022-08-12T00:21:56.286Z,61.42
2022-08-12T00:24:43.016Z,57.77
2022-08-12T00:27:43.842Z,57.31
2022-08-12T00:30:32.093Z,62.44
2022-08-12T00:33:18.731Z,67.21
2022-08-12T00:36:35.214Z,63.31
2022-08-12T00:39:22.903Z,60.13
2022-08-12T00:42:11.807Z,57.29
2022-08-12T00:44:48.150Z,57.46
2022-08-12T00:47:24.715Z,63.18
2022-08-12T00:49:57.101Z,65.45
2022-08-12T00:52:25.994Z,63.77
2022-08-12T00:55:00.263Z,61.68
2022-08-12T00:57:37.482Z,58.66
2022-08-12T01:00:10.053Z,60.14
2022-08-12T01:07:43.668Z,64.57
2022-08-12T01:10:32.533Z,61.75
2022-08-12T01:13:18.245Z,58.66
2022-08-12T01:16:40.055Z,59.41
2022-08-12T01:19:08.755Z,63.73
2022-08-12T01:22:04.226Z,62.03
2022-08-12T01:24:38.053Z,60.26
2022-08-12T01:27:09.931Z,59.57
2022-08-12T01:29:44.074Z,59.03
2022-08-12T01:32:14.678Z,62.36
2022-08-12T01:34:54.164Z,63.31
2022-08-12T01:42:05.236Z,59.57
2022-08-12T01:44:35.327Z,57.58
2022-08-12T01:47:31.240Z,59.69
2022-08-12T01:50:21.476Z,63.85
2022-08-12T01:52:55.587Z,62.47
2022-08-12T01:55:27.117Z,59.88
2022-08-12T01:58:21.080Z,57.77
2022-08-12T02:01:16.017Z,60.76
2022-08-12T02:04:13.416Z,63.00
2022-08-12T02:07:18.739Z,63.63
2022-08-12T02:10:49.054Z,60.67
2022-08-12T02:13:48.425Z,58.06
2022-08-12T02:16:39.973Z,57.41
2022-08-12T02:19:22.308Z,63.30
2022-08-12T02:22:04.723Z,63.55
2022-08-12T02:24:37.539Z,60.56
2022-08-12T02:27:10.837Z,58.93
2022-08-12T02:29:41.031Z,60.56
2022-08-12T02:32:09.523Z,63.31
2022-08-12T02:34:38.123Z,61.67
2022-08-12T02:37:09.346Z,55.44
2022-08-12T02:39:40.964Z,54.71
2022-08-12T02:42:12.150Z,57.07
2022-08-12T02:44:43.749Z,63.23
2022-08-12T02:47:58.893Z,62.50
2022-08-12T02:50:04.145Z,59.70
2022-08-12T02:52:35.038Z,58.42
2022-08-12T02:55:28.185Z,61.77
2022-08-12T02:58:12.565Z,64.20
2022-08-12T03:00:44.450Z,62.77
2022-08-12T03:03:14.880Z,60.10
2022-08-12T03:05:54.587Z,58.61
2022-08-12T03:08:32.511Z,60.62
2022-08-12T03:11:27.853Z,63.68
2022-08-12T03:14:02.185Z,63.47
2022-08-12T03:16:33.198Z,60.14
2022-08-12T03:19:01.570Z,55.86
2022-08-12T03:21:53.138Z,55.31
2022-08-12T03:24:26.547Z,56.68
2022-08-12T03:26:55.398Z,63.22
2022-08-12T03:29:33.448Z,62.76
2022-08-12T03:32:35.788Z,58.89
2022-08-12T03:35:07.568Z,57.69
2022-08-12T03:37:37.550Z,58.00
2022-08-12T03:40:08.989Z,63.03
2022-08-12T03:43:05.425Z,64.61
2022-08-12T03:45:53.090Z,59.40
2022-08-12T03:48:39.990Z,56.69
2022-08-12T03:51:27.785Z,57.78
2022-08-12T03:54:15.352Z,64.12
2022-08-12T03:57:01.949Z,63.13
2022-08-12T03:59:48.516Z,57.92
2022-08-12T04:02:17.729Z,60.49
2022-08-12T04:04:49.288Z,63.41
2022-08-12T04:07:17.948Z,62.12
2022-08-12T04:09:47.138Z,61.04
2022-08-12T04:12:34.131Z,56.87
2022-08-12T04:15:02.960Z,55.92
2022-08-12T04:17:31.651Z,59.32
2022-08-12T04:20:00.014Z,64.04
2022-08-12T04:22:37.948Z,64.05
2022-08-12T04:25:06.255Z,60.80
2022-08-12T04:27:35.065Z,57.59
2022-08-12T04:30:31.074Z,59.61
2022-08-12T04:32:54.024Z,62.60
2022-08-12T04:35:22.355Z,65.10
2022-08-12T04:38:00.371Z,62.22
2022-08-12T04:40:32.559Z,59.60
2022-08-12T04:43:03.880Z,58.31
2022-08-12T04:45:33.264Z,61.16
2022-08-12T04:48:02.642Z,63.68
2022-08-12T04:50:36.216Z,63.60
2022-08-12T04:53:07.992Z,62.58
2022-08-12T04:55:42.598Z,61.48
2022-08-12T04:58:12.334Z,58.29
2022-08-12T05:00:42.940Z,59.09
2022-08-12T05:03:11.106Z,61.44
2022-08-12T05:05:40.813Z,64.87
2022-08-12T05:08:15.959Z,64.96
2022-08-12T05:10:46.586Z,62.08
2022-08-12T05:13:21.830Z,58.49
2022-08-12T05:16:04.302Z,56.88
2022-08-12T05:18:39.516Z,58.05
2022-08-12T05:21:09.185Z,59.60
2022-08-12T05:23:38.681Z,65.58
2022-08-12T05:26:07.129Z,65.73
2022-08-12T05:28:35.563Z,62.49
2022-08-12T05:31:04.539Z,58.47
2022-08-12T05:33:40.910Z,57.94
2022-08-12T05:36:15.285Z,59.01
2022-08-12T05:38:57.179Z,64.36
2022-08-12T05:41:35.433Z,62.95
2022-08-12T05:44:07.930Z,58.30
2022-08-12T05:46:39.741Z,58.33
2022-08-12T05:49:09.359Z,59.50
2022-08-12T05:51:40.705Z,64.33
2022-08-12T05:54:11.715Z,62.87
2022-08-12T05:56:43.784Z,59.13
2022-08-12T05:59:13.053Z,56.62
2022-08-12T06:02:10.727Z,58.35
2022-08-12T06:04:31.788Z,60.60
2022-08-12T06:07:01.963Z,66.04
2022-08-12T06:09:31.092Z,64.85
2022-08-12T06:12:06.188Z,59.88
2022-08-12T06:14:38.758Z,57.01
2022-08-12T06:17:09.446Z,57.32
2022-08-12T06:20:26.068Z,59.42
2022-08-12T06:22:27.002Z,64.81
2022-08-12T06:24:55.182Z,63.78
2022-08-12T06:27:23.405Z,58.10
2022-08-12T06:30:09.416Z,58.05
2022-08-12T06:32:52.012Z,59.85
2022-08-12T06:35:47.976Z,59.14
2022-08-12T06:38:16.777Z,63.74
2022-08-12T06:41:05.367Z,62.63
2022-08-12T06:44:05.776Z,58.01
2022-08-12T06:46:24.239Z,56.86
2022-08-12T06:48:59.171Z,58.99
2022-08-12T06:51:30.351Z,60.46
2022-08-12T06:53:59.839Z,62.98
2022-08-12T06:56:59.500Z,61.42
2022-08-12T06:59:16.550Z,57.56
2022-08-12T07:01:50.725Z,57.02
2022-08-12T07:04:37.809Z,56.39
2022-08-12T07:07:10.368Z,58.00
2022-08-12T07:10:00.107Z,59.26
2022-08-12T07:12:32.362Z,59.83
2022-08-12T07:15:02.201Z,60.78
2022-08-12T07:17:36.565Z,65.17
2022-08-12T07:20:29.735Z,64.33
2022-08-12T07:23:00.831Z,57.05
2022-08-12T07:25:37.567Z,56.21
2022-08-12T07:28:17.067Z,58.64
2022-08-12T07:30:49.504Z,59.24
2022-08-12T07:33:22.427Z,60.07
2022-08-12T07:35:54.158Z,59.53
2022-08-12T07:38:38.350Z,59.68
2022-08-12T07:41:15.625Z,59.89
2022-08-12T07:43:48.661Z,64.56
2022-08-12T07:46:22.670Z,64.60
2022-08-12T07:48:51.817Z,56.69
2022-08-12T07:51:25.513Z,54.66
2022-08-12T07:54:00.391Z,55.19
2022-08-12T07:56:31.701Z,55.94
2022-08-12T07:59:01.333Z,56.48
2022-08-12T08:01:30.570Z,57.72
2022-08-12T08:04:19.362Z,58.24
2022-08-12T08:06:49.492Z,58.62
2022-08-12T08:09:21.359Z,59.15
2022-08-12T08:12:08.472Z,60.28
2022-08-12T08:14:37.124Z,60.03
2022-08-12T08:17:06.687Z,60.42
2022-08-12T08:20:03.251Z,60.62
2022-08-12T08:22:32.058Z,60.73
2022-08-12T08:25:36.668Z,60.48
2022-08-12T08:28:01.505Z,60.06
2022-08-12T08:30:31.319Z,60.24
2022-08-12T08:32:59.802Z,59.99
2022-08-12T08:35:32.132Z,59.66
2022-08-12T08:38:27.358Z,59.40
2022-08-12T08:42:13.980Z,58.78
2022-08-12T08:44:11.240Z,57.98
2022-08-12T08:46:40.805Z,57.25
2022-08-12T08:49:08.851Z,57.37
2022-08-12T08:51:39.075Z,57.50
2022-08-12T08:54:08.962Z,57.39
2022-08-12T08:56:44.218Z,57.01
2022-08-12T08:59:13.838Z,56.65
2022-08-12T09:01:44.339Z,55.86
2022-08-12T09:05:09.475Z,55.59
2022-08-12T09:10:02.419Z,55.46
2022-08-12T09:12:55.157Z,55.19
2022-08-12T09:15:35.410Z,55.04
2022-08-12T09:20:54.023Z,54.48
2022-08-12T09:23:57.083Z,54.72
2022-08-12T09:26:10.005Z,54.09
2022-08-12T09:28:41.238Z,53.88
2022-08-12T09:32:03.216Z,52.92
2022-08-12T09:34:25.894Z,52.61
2022-08-12T09:36:58.083Z,51.49
2022-08-12T09:40:06.210Z,51.28
2022-08-12T09:42:54.270Z,50.87
2022-08-12T09:46:20.861Z,50.50
2022-08-12T09:48:22.247Z,50.24
2022-08-12T09:50:55.281Z,50.21
2022-08-12T09:53:36.540Z,50.50
2022-08-12T09:56:57.017Z,51.07
2022-08-12T09:59:01.791Z,51.69
2022-08-12T10:01:35.423Z,52.57
2022-08-12T10:04:20.156Z,53.05
2022-08-12T10:06:54.087Z,53.56
2022-08-12T10:09:28.641Z,53.32
2022-08-12T10:12:31.631Z,51.85
2022-08-12T10:15:02.571Z,50.91
2022-08-12T10:17:30.887Z,50.77
2022-08-12T10:19:59.839Z,49.44
2022-08-12T10:22:47.116Z,49.75
2022-08-12T10:26:35.516Z,49.61
2022-08-12T10:28:42.617Z,49.09
2022-08-12T10:31:46.859Z,48.15
2022-08-12T10:34:26.150Z,48.41
2022-08-12T10:37:10.469Z,49.29
2022-08-12T10:40:06.938Z,49.33
2022-08-12T10:43:00.570Z,48.60
2022-08-12T10:45:32.012Z,48.11
2022-08-12T10:48:20.425Z,47.40
2022-08-12T10:51:01.902Z,47.02
2022-08-12T10:53:43.707Z,46.81
2022-08-12T10:56:18.630Z,45.98
2022-08-12T10:58:47.087Z,46.10
2022-08-12T11:01:50.567Z,46.33
2022-08-12T11:04:24.118Z,46.62
2022-08-12T11:07:05.537Z,46.78
2022-08-12T11:10:00.728Z,45.82
2022-08-12T11:12:55.067Z,45.16
2022-08-12T11:15:32.878Z,45.29
2022-08-12T11:18:11.863Z,45.28
2022-08-12T11:20:47.686Z,44.33
2022-08-12T11:23:25.633Z,44.19
2022-08-12T11:26:07.256Z,45.10
2022-08-12T11:28:36.893Z,46.35
2022-08-12T11:31:11.973Z,46.77
2022-08-12T11:34:05.232Z,46.93
2022-08-12T11:36:30.651Z,45.80
2022-08-12T11:39:04.284Z,45.07
2022-08-12T11:41:34.777Z,44.79
2022-08-12T11:44:35.301Z,44.70
2022-08-12T11:46:54.745Z,44.22
2022-08-12T11:49:31.436Z,43.63
2022-08-12T11:52:17.305Z,43.01
2022-08-12T11:54:54.410Z,42.94
2022-08-12T11:58:07.195Z,43.36
2022-08-12T12:02:59.549Z,43.93
2022-08-12T12:05:28.482Z,43.77
2022-08-12T12:08:37.248Z,42.87
2022-08-12T12:10:55.369Z,41.70
2022-08-12T12:14:06.423Z,41.65
2022-08-12T12:16:12.647Z,42.50
2022-08-12T12:18:40.913Z,43.07
2022-08-12T12:21:08.958Z,43.10
2022-08-12T12:23:38.561Z,43.45
2022-08-12T12:26:35.465Z,43.05
2022-08-12T12:29:05.275Z,44.20
2022-08-12T12:32:09.863Z,43.84
2022-08-12T12:34:30.625Z,43.67
2022-08-12T12:36:58.820Z,43.86
2022-08-12T12:39:29.091Z,42.95
2022-08-12T12:42:45.312Z,42.37
2022-08-12T12:44:50.937Z,42.92
2022-08-12T12:47:29.943Z,42.25
2022-08-12T12:49:58.263Z,41.21
2022-08-12T12:52:27.127Z,41.39
2022-08-12T12:54:58.777Z,40.84
2022-08-12T12:57:59.261Z,40.81
2022-08-12T13:00:18.147Z,40.13
2022-08-12T13:02:53.643Z,39.63
2022-08-12T13:05:29.321Z,39.12
2022-08-12T13:08:01.846Z,38.90
2022-08-12T13:10:36.675Z,38.59
2022-08-12T13:14:07.926Z,37.41
2022-08-12T13:15:59.094Z,37.96
2022-08-12T13:18:36.455Z,37.87
2022-08-12T13:21:06.728Z,37.40
2022-08-12T13:23:48.063Z,37.48
2022-08-12T13:26:18.495Z,37.19
2022-08-12T13:28:53.387Z,37.21
2022-08-12T13:31:24.997Z,35.86
2022-08-12T13:34:32.769Z,35.21
2022-08-12T13:36:43.550Z,35.21
2022-08-12T13:39:12.906Z,35.02
2022-08-12T13:41:44.743Z,35.55
2022-08-12T13:44:13.181Z,35.72
2022-08-12T13:46:42.319Z,35.89
2022-08-12T13:49:20.421Z,35.84
2022-08-12T13:52:04.580Z,35.91
2022-08-12T13:54:33.937Z,35.91
2022-08-12T13:57:01.860Z,35.32
2022-08-12T13:59:30.912Z,34.88
2022-08-12T14:02:17.651Z,34.77
2022-08-12T14:04:45.646Z,34.85
2022-08-12T14:07:25.876Z,35.32
2022-08-12T14:10:16.337Z,34.71
2022-08-12T14:12:54.115Z,34.82
2022-08-12T14:15:26.686Z,34.91
2022-08-12T14:18:29.241Z,34.77
2022-08-12T14:21:06.384Z,35.10
2022-08-12T14:24:01.943Z,35.05
2022-08-12T14:26:29.155Z,34.50
2022-08-12T14:29:01.736Z,34.84
2022-08-12T14:31:31.998Z,34.65
2022-08-12T14:34:00.422Z,34.90
2022-08-12T14:36:33.216Z,34.71
2022-08-12T14:39:04.974Z,34.20
2022-08-12T14:41:37.164Z,33.37
2022-08-12T14:45:00.108Z,33.50
2022-08-12T14:47:07.652Z,32.15
2022-08-12T14:50:33.969Z,32.43
2022-08-12T14:53:41.261Z,31.85
2022-08-12T14:58:03.036Z,31.86
2022-08-12T15:00:55.486Z,31.94
2022-08-12T15:03:57.030Z,31.59
2022-08-12T15:06:44.061Z,32.04
2022-08-12T15:09:17.620Z,32.03
2022-08-12T15:12:03.693Z,31.48
2022-08-12T15:14:40.151Z,32.28
2022-08-12T15:17:37.639Z,32.92
2022-08-12T15:20:31.033Z,32.34
2022-08-12T15:22:58.220Z,32.25
2022-08-12T15:25:30.530Z,32.68
2022-08-12T15:28:20.764Z,33.51
2022-08-12T15:30:54.726Z,33.73
2022-08-12T15:33:44.766Z,33.85
2022-08-12T15:36:19.570Z,33.26
2022-08-12T15:39:04.171Z,33.03
2022-08-12T15:41:49.323Z,32.60
2022-08-12T15:44:37.033Z,32.80
2022-08-12T15:47:07.378Z,32.74
2022-08-12T15:49:54.417Z,33.09
2022-08-12T15:52:33.299Z,33.43
2022-08-12T15:55:06.631Z,33.61
2022-08-12T15:57:53.381Z,34.01
2022-08-12T16:00:28.927Z,34.87
2022-08-12T16:03:08.382Z,34.85
2022-08-12T16:06:16.767Z,34.77
2022-08-12T16:08:42.998Z,34.92
2022-08-12T16:11:14.790Z,35.15
2022-08-12T16:13:46.924Z,35.29
2022-08-12T16:16:23.654Z,35.29
2022-08-12T16:19:00.736Z,35.46
2022-08-12T16:21:52.947Z,35.58
2022-08-12T16:24:20.835Z,35.78
2022-08-12T16:26:51.006Z,36.15
2022-08-12T16:29:38.701Z,36.21
2022-08-12T16:33:59.665Z,36.44
2022-08-12T16:36:28.467Z,36.86
2022-08-12T16:38:57.243Z,37.14
2022-08-12T16:41:28.272Z,37.42
2022-08-12T16:44:09.045Z,37.59
2022-08-12T16:46:38.189Z,37.77
2022-08-12T16:49:12.976Z,37.79
2022-08-12T16:51:46.985Z,38.10
2022-08-12T16:54:19.077Z,38.20
2022-08-12T16:56:55.352Z,38.47
2022-08-12T16:59:52.939Z,38.29
2022-08-12T17:02:34.031Z,38.17
2022-08-12T17:05:14.893Z,37.29
2022-08-12T17:07:47.246Z,36.01
2022-08-12T17:10:36.072Z,34.84
2022-08-12T17:13:10.092Z,33.70
2022-08-12T17:16:05.628Z,33.14
2022-08-12T17:18:43.240Z,32.94
2022-08-12T17:21:41.809Z,32.93
2022-08-12T17:24:22.312Z,32.76
2022-08-12T17:27:01.194Z,32.64
2022-08-12T17:30:02.530Z,33.04
2022-08-12T17:32:33.762Z,33.45
2022-08-12T17:35:22.011Z,34.20
2022-08-12T17:38:11.801Z,35.70
2022-08-12T17:40:54.566Z,37.15
2022-08-12T17:43:51.805Z,38.61
2022-08-12T17:46:12.962Z,40.37
2022-08-12T17:48:55.444Z,41.95
2022-08-12T17:51:26.381Z,43.22
2022-08-12T17:54:11.031Z,44.26
2022-08-12T17:56:43.303Z,45.43
2022-08-12T17:59:13.098Z,46.47
2022-08-12T18:01:45.197Z,47.43
2022-08-12T18:04:22.442Z,47.85
2022-08-12T18:07:08.431Z,48.18
2022-08-12T18:09:38.036Z,49.19
2022-08-12T18:12:26.493Z,49.78
2022-08-12T18:15:01.139Z,50.05
2022-08-12T18:17:30.154Z,50.61
2022-08-12T18:20:06.134Z,49.92
2022-08-12T18:22:38.565Z,51.54
2022-08-12T18:26:15.906Z,52.18
2022-08-12T18:28:16.178Z,52.31
2022-08-12T18:30:52.173Z,52.69
2022-08-12T18:33:25.526Z,53.16
2022-08-12T18:35:56.858Z,53.70
2022-08-12T18:38:27.113Z,54.16
2022-08-12T18:41:21.452Z,54.67
2022-08-12T18:43:59.852Z,54.82
2022-08-12T18:46:53.984Z,55.35
2022-08-12T18:49:33.326Z,55.54
2022-08-12T18:52:08.008Z,55.83
2022-08-12T18:54:49.405Z,56.24
2022-08-12T18:58:07.467Z,56.25
2022-08-12T19:00:21.254Z,56.50
2022-08-12T19:02:53.484Z,57.25
2022-08-12T19:05:52.762Z,57.32
2022-08-12T19:08:14.594Z,57.41
2022-08-12T19:10:49.938Z,58.27
2022-08-12T19:13:40.000Z,58.56
2022-08-12T19:16:11.239Z,58.51
2022-08-12T19:18:45.009Z,58.86
2022-08-12T19:21:16.335Z,59.21
2022-08-12T19:24:05.316Z,59.55
2022-08-12T19:26:35.422Z,59.57
2022-08-12T19:29:08.180Z,60.05
2022-08-12T19:31:58.372Z,60.22
2022-08-12T19:38:03.124Z,60.31
2022-08-12T19:40:20.296Z,60.37
2022-08-12T19:43:20.023Z,60.82
2022-08-12T19:45:51.612Z,61.17
2022-08-12T19:48:22.053Z,62.84
2022-08-12T19:50:53.617Z,66.63
2022-08-12T19:53:24.431Z,63.27
2022-08-12T19:55:54.155Z,59.41
2022-08-12T19:58:24.302Z,56.37
2022-08-12T20:00:55.052Z,56.39
2022-08-12T20:03:40.649Z,57.31
2022-08-12T20:06:15.617Z,57.59
2022-08-12T20:08:48.905Z,58.56
2022-08-12T20:12:13.088Z,59.36
2022-08-12T20:14:18.488Z,59.99
2022-08-12T20:17:02.111Z,64.71
2022-08-12T20:20:05.499Z,66.17
2022-08-12T20:22:31.488Z,60.17
2022-08-12T20:25:10.780Z,58.57
2022-08-12T20:28:04.277Z,59.04
2022-08-12T20:30:37.633Z,59.55
2022-08-12T20:33:23.315Z,63.38
2022-08-12T20:36:13.484Z,67.30
2022-08-12T20:38:51.834Z,63.40
2022-08-12T20:41:24.044Z,58.77
2022-08-12T20:43:57.550Z,57.25
2022-08-12T20:46:31.670Z,58.24
2022-08-12T20:49:01.463Z,59.20
2022-08-12T20:51:55.625Z,60.13
2022-08-12T20:54:32.796Z,65.15
2022-08-12T20:57:08.806Z,67.11
2022-08-12T20:59:41.881Z,60.09
2022-08-12T21:02:18.712Z,57.59
2022-08-12T21:05:19.883Z,58.21
2022-08-12T21:07:51.779Z,58.91
2022-08-12T21:10:20.974Z,60.38
2022-08-12T21:12:50.943Z,60.66
2022-08-12T21:15:24.130Z,63.82
2022-08-12T21:18:09.782Z,66.66
2022-08-12T21:20:52.885Z,60.94
2022-08-12T21:23:22.529Z,57.77
2022-08-12T21:25:56.286Z,58.39
2022-08-12T21:28:27.624Z,59.93
2022-08-12T21:32:34.794Z,60.81
2022-08-12T21:34:06.602Z,65.47
2022-08-12T21:36:48.290Z,65.71
2022-08-12T21:39:21.236Z,60.29
2022-08-12T21:41:52.309Z,58.84
2022-08-12T21:45:45.778Z,60.02
2022-08-12T21:47:22.433Z,60.98
2022-08-12T21:50:03.784Z,66.38
2022-08-12T21:52:41.105Z,66.52
2022-08-12T21:55:18.984Z,64.07
2022-08-12T21:57:53.360Z,59.11
2022-08-12T22:00:33.522Z,57.95
2022-08-12T22:04:03.498Z,58.92
2022-08-12T22:06:30.741Z,63.97
2022-08-12T22:09:16.331Z,64.17
2022-08-12T22:11:59.229Z,59.13
2022-08-12T22:14:29.154Z,57.45
2022-08-12T22:17:00.379Z,58.79
2022-08-12T22:19:28.904Z,59.91
2022-08-12T22:22:04.078Z,64.05
2022-08-12T22:24:34.372Z,66.31
2022-08-12T22:27:17.879Z,62.87
2022-08-12T22:30:16.565Z,58.69
2022-08-12T22:32:49.787Z,58.02
2022-08-12T22:35:58.361Z,59.88
2022-08-12T22:38:26.638Z,64.60
2022-08-12T22:41:01.863Z,64.13
2022-08-12T22:44:01.045Z,62.15
2022-08-12T22:46:52.942Z,58.53
2022-08-12T22:49:36.815Z,58.15
2022-08-12T22:52:18.605Z,64.64
2022-08-12T22:55:02.871Z,63.99
2022-08-12T22:57:48.983Z,62.13
2022-08-12T23:00:24.556Z,58.41
2022-08-12T23:03:00.885Z,58.30
2022-08-12T23:05:57.327Z,60.76
2022-08-12T23:08:29.845Z,66.39
2022-08-12T23:11:06.156Z,65.35
2022-08-12T23:13:45.887Z,62.59
2022-08-12T23:16:18.191Z,58.99
2022-08-12T23:19:01.718Z,59.40
2022-08-12T23:22:05.792Z,60.73
2022-08-12T23:24:31.393Z,66.73
2022-08-12T23:27:19.613Z,66.02
2022-08-12T23:30:17.389Z,63.83
2022-08-12T23:32:39.263Z,59.73
2022-08-12T23:35:08.646Z,59.96
2022-08-12T23:37:47.651Z,64.22
2022-08-12T23:40:24.500Z,65.63
2022-08-12T23:42:57.023Z,62.12
2022-08-12T23:45:31.741Z,58.94
2022-08-12T23:48:02.202Z,58.81
2022-08-12T23:50:34.523Z,60.43
2022-08-12T23:53:22.288Z,64.97
2022-08-12T23:55:54.978Z,66.17
2022-08-12T23:58:28.357Z,63.71
